createdAt,value
2022-10-31T00:00:45.447Z,78.26
2022-10-31T00:01:45.427Z,78.46
2022-10-31T00:02:45.587Z,78.56
2022-10-31T00:03:45.615Z,78.87
2022-10-31T00:04:45.741Z,78.87
2022-10-31T00:05:44.851Z,78.97
2022-10-31T00:06:47.021Z,78.97
2022-10-31T00:07:46.138Z,78.97
2022-10-31T00:09:11.108Z,78.77
2022-10-31T00:09:45.324Z,78.80
2022-10-31T00:10:45.443Z,78.80
2022-10-31T00:11:44.519Z,78.91
2022-10-31T00:12:44.717Z,79.00
2022-10-31T00:13:44.813Z,79.31
2022-10-31T00:14:44.940Z,79.55
2022-10-31T00:15:45.065Z,79.65
2022-10-31T00:16:46.230Z,79.96
2022-10-31T00:17:45.342Z,80.06
2022-10-31T00:18:44.461Z,80.26
2022-10-31T00:19:44.624Z,80.57
2022-10-31T00:20:44.743Z,80.57
2022-10-31T00:21:44.850Z,80.77
2022-10-31T00:22:46.030Z,81.07
2022-10-31T00:23:45.136Z,81.07
2022-10-31T00:24:46.453Z,80.97
2022-10-31T00:25:45.403Z,80.97
2022-10-31T00:26:45.561Z,80.87
2022-10-31T00:27:45.718Z,80.77
2022-10-31T00:28:45.861Z,80.66
2022-10-31T00:29:45.991Z,80.57
2022-10-31T00:30:44.293Z,80.26
2022-10-31T00:31:45.412Z,80.26
2022-10-31T00:32:44.510Z,80.36
2022-10-31T00:33:45.772Z,80.46
2022-10-31T00:34:45.805Z,80.66
2022-10-31T00:35:44.944Z,80.77
2022-10-31T00:36:46.057Z,80.91
2022-10-31T00:37:45.126Z,81.01
2022-10-31T00:38:44.222Z,80.91
2022-10-31T00:39:45.350Z,80.91
2022-10-31T00:40:45.502Z,81.01
2022-10-31T00:41:44.553Z,81.11
2022-10-31T00:42:44.693Z,81.31
2022-10-31T00:43:45.912Z,81.45
2022-10-31T00:44:46.037Z,81.45
2022-10-31T00:45:44.104Z,81.56
2022-10-31T00:46:45.312Z,81.66
2022-10-31T00:47:45.425Z,81.76
2022-10-31T00:48:44.527Z,81.86
2022-10-31T00:50:16.832Z,82.06
2022-10-31T00:50:44.825Z,82.06
2022-10-31T00:51:43.932Z,82.17
2022-10-31T00:52:59.886Z,82.17
2022-10-31T00:53:44.210Z,82.17
2022-10-31T00:54:44.346Z,82.17
2022-10-31T00:55:44.475Z,82.17
2022-10-31T00:56:44.622Z,82.17
2022-10-31T00:57:44.755Z,82.06
2022-10-31T00:58:43.882Z,82.06
2022-10-31T00:59:43.982Z,82.06
2022-10-31T01:00:46.792Z,82.06
2022-10-31T01:01:45.382Z,82.26
2022-10-31T01:02:44.581Z,82.23
2022-10-31T01:03:44.608Z,82.17
2022-10-31T01:04:44.685Z,82.17
2022-10-31T01:05:44.835Z,82.03
2022-10-31T01:06:44.013Z,81.86
2022-10-31T01:07:44.071Z,81.66
2022-10-31T01:08:44.203Z,81.66
2022-10-31T01:09:44.364Z,81.66
2022-10-31T01:10:44.157Z,81.76
2022-10-31T01:11:45.335Z,81.76
2022-10-31T01:12:44.436Z,81.96
2022-10-31T01:13:44.624Z,82.06
2022-10-31T01:14:44.768Z,82.26
2022-10-31T01:15:44.915Z,82.57
2022-10-31T01:16:45.104Z,82.67
2022-10-31T01:17:45.252Z,82.57
2022-10-31T01:18:45.399Z,82.47
2022-10-31T01:19:45.560Z,82.37
2022-10-31T01:20:45.680Z,82.37
2022-10-31T01:21:45.818Z,82.37
2022-10-31T01:22:51.159Z,82.37
2022-10-31T01:23:44.025Z,82.37
2022-10-31T01:24:45.196Z,82.26
2022-10-31T01:25:45.540Z,82.37
2022-10-31T01:26:45.492Z,82.47
2022-10-31T01:27:45.629Z,82.47
2022-10-31T01:28:44.725Z,82.57
2022-10-31T01:29:43.860Z,82.67
2022-10-31T01:30:45.013Z,82.87
2022-10-31T01:31:45.182Z,83.01
2022-10-31T01:32:45.324Z,83.12
2022-10-31T01:33:45.449Z,83.12
2022-10-31T01:34:45.620Z,83.12
2022-10-31T01:35:45.775Z,83.22
2022-10-31T01:36:44.872Z,83.42
2022-10-31T01:37:45.042Z,83.53
2022-10-31T01:38:45.152Z,83.62
2022-10-31T01:39:45.304Z,83.62
2022-10-31T01:40:45.461Z,83.73
2022-10-31T01:41:43.533Z,83.73
2022-10-31T01:42:46.281Z,83.83
2022-10-31T01:43:43.841Z,83.83
2022-10-31T01:44:45.063Z,83.93
2022-10-31T01:45:45.388Z,84.03
2022-10-31T01:46:43.331Z,84.07
2022-10-31T01:47:44.524Z,84.07
2022-10-31T01:48:43.763Z,84.17
2022-10-31T01:49:43.814Z,84.28
2022-10-31T01:50:43.986Z,84.28
2022-10-31T01:51:43.112Z,84.38
2022-10-31T01:52:44.253Z,84.58
2022-10-31T01:53:43.465Z,84.78
2022-10-31T01:54:43.813Z,85.03
2022-10-31T01:55:43.805Z,85.13
2022-10-31T01:56:43.973Z,85.43
2022-10-31T01:57:43.112Z,85.53
2022-10-31T01:58:43.304Z,85.64
2022-10-31T01:59:43.464Z,85.74
2022-10-31T02:00:43.791Z,85.84
2022-10-31T02:01:43.995Z,85.94
2022-10-31T02:02:44.208Z,86.04
2022-10-31T02:03:44.216Z,86.04
2022-10-31T02:04:44.424Z,86.15
2022-10-31T02:05:44.626Z,86.25
2022-10-31T02:06:43.740Z,86.29
2022-10-31T02:07:43.913Z,86.29
2022-10-31T02:08:44.105Z,86.29
2022-10-31T02:09:43.256Z,86.25
2022-10-31T02:10:44.496Z,86.25
2022-10-31T02:11:44.735Z,86.15
2022-10-31T02:12:44.860Z,86.15
2022-10-31T02:13:43.996Z,86.04
2022-10-31T02:14:43.133Z,86.04
2022-10-31T02:15:44.346Z,85.94
2022-10-31T02:16:43.495Z,85.94
2022-10-31T02:17:44.789Z,85.84
2022-10-31T02:18:42.838Z,85.84
2022-10-31T02:19:45.080Z,85.94
2022-10-31T02:20:45.266Z,86.04
2022-10-31T02:21:44.375Z,86.04
2022-10-31T02:22:43.534Z,86.15
2022-10-31T02:23:47.963Z,86.29
2022-10-31T02:24:42.826Z,86.49
2022-10-31T02:25:43.005Z,86.49
2022-10-31T02:26:43.155Z,86.49
2022-10-31T02:27:43.316Z,86.69
2022-10-31T02:28:43.505Z,86.80
2022-10-31T02:29:46.096Z,86.80
2022-10-31T02:30:42.800Z,86.90
2022-10-31T02:31:42.995Z,87.00
2022-10-31T02:32:43.168Z,87.10
2022-10-31T02:33:43.338Z,87.10
2022-10-31T02:34:43.518Z,87.20
2022-10-31T02:35:43.760Z,87.30
2022-10-31T02:36:42.917Z,87.30
2022-10-31T02:37:43.050Z,87.41
2022-10-31T02:38:43.244Z,87.55
2022-10-31T02:39:43.415Z,87.55
2022-10-31T02:40:44.697Z,87.51
2022-10-31T02:41:42.766Z,87.51
2022-10-31T02:42:42.965Z,87.51
2022-10-31T02:43:44.177Z,87.51
2022-10-31T02:44:44.364Z,87.41
2022-10-31T02:45:42.464Z,87.41
2022-10-31T02:46:42.704Z,87.41
2022-10-31T02:47:42.862Z,87.41
2022-10-31T02:48:43.001Z,87.51
2022-10-31T02:49:44.151Z,87.51
2022-10-31T02:50:43.366Z,87.51
2022-10-31T02:51:42.508Z,87.51
2022-10-31T02:52:43.759Z,87.51
2022-10-31T02:53:42.849Z,87.51
2022-10-31T02:54:43.019Z,87.61
2022-10-31T02:55:43.184Z,87.61
2022-10-31T02:56:43.360Z,87.71
2022-10-31T02:57:42.502Z,87.71
2022-10-31T02:58:42.970Z,87.71
2022-10-31T02:59:43.807Z,87.61
2022-10-31T03:00:44.787Z,87.61
2022-10-31T03:01:44.428Z,87.61
2022-10-31T03:02:44.636Z,87.51
2022-10-31T03:03:42.539Z,87.51
2022-10-31T03:04:43.801Z,87.51
2022-10-31T03:05:42.926Z,87.51
2022-10-31T03:06:43.184Z,87.61
2022-10-31T03:07:49.536Z,87.65
2022-10-31T03:08:42.454Z,87.65
2022-10-31T03:09:44.780Z,87.65
2022-10-31T03:10:43.871Z,87.65
2022-10-31T03:11:43.026Z,87.75
2022-10-31T03:12:44.596Z,87.85
2022-10-31T03:13:45.413Z,87.96
2022-10-31T03:14:44.481Z,87.96
2022-10-31T03:15:42.691Z,88.06
2022-10-31T03:16:42.862Z,88.06
2022-10-31T03:17:44.075Z,88.16
2022-10-31T03:18:42.201Z,88.16
2022-10-31T03:19:43.406Z,88.16
2022-10-31T03:20:42.581Z,88.26
2022-10-31T03:21:42.961Z,88.36
2022-10-31T03:22:42.963Z,88.26
2022-10-31T03:23:43.158Z,88.31
2022-10-31T03:24:42.295Z,88.31
2022-10-31T03:25:44.570Z,88.40
2022-10-31T03:26:42.714Z,88.31
2022-10-31T03:27:43.925Z,88.31
2022-10-31T03:28:44.074Z,88.40
2022-10-31T03:29:44.265Z,88.40
2022-10-31T03:30:44.401Z,88.61
2022-10-31T03:31:42.500Z,88.61
2022-10-31T03:32:42.665Z,88.71
2022-10-31T03:33:43.941Z,88.81
2022-10-31T03:34:44.053Z,88.81
2022-10-31T03:35:44.176Z,88.92
2022-10-31T03:36:43.328Z,89.01
2022-10-31T03:37:42.447Z,88.92
2022-10-31T03:38:42.624Z,88.96
2022-10-31T03:39:42.838Z,89.06
2022-10-31T03:40:42.989Z,89.16
2022-10-31T03:41:42.119Z,89.12
2022-10-31T03:42:49.575Z,89.06
2022-10-31T03:43:42.480Z,89.16
2022-10-31T03:44:42.637Z,88.96
2022-10-31T03:45:41.804Z,88.96
2022-10-31T03:46:41.931Z,88.96
2022-10-31T03:47:42.104Z,88.96
2022-10-31T03:48:42.276Z,89.06
2022-10-31T03:49:42.440Z,89.16
2022-10-31T03:50:41.574Z,89.16
2022-10-31T03:51:41.917Z,89.36
2022-10-31T03:52:41.928Z,89.36
2022-10-31T03:53:45.224Z,89.57
2022-10-31T03:54:43.339Z,89.57
2022-10-31T03:55:43.519Z,89.61
2022-10-31T03:56:42.708Z,89.81
2022-10-31T03:57:47.723Z,89.92
2022-10-31T03:58:42.017Z,90.01
2022-10-31T03:59:43.237Z,89.92
2022-10-31T04:00:42.390Z,90.01
2022-10-31T04:01:42.717Z,90.26
2022-10-31T04:02:43.098Z,90.36
2022-10-31T04:03:41.908Z,90.57
2022-10-31T04:04:42.100Z,90.67
2022-10-31T04:05:42.292Z,90.88
2022-10-31T04:06:42.488Z,90.98
2022-10-31T04:07:41.678Z,91.08
2022-10-31T04:08:41.949Z,91.08
2022-10-31T04:09:43.032Z,91.08
2022-10-31T04:10:42.179Z,90.94
2022-10-31T04:11:43.389Z,90.88
2022-10-31T04:12:42.554Z,90.83
2022-10-31T04:13:41.670Z,90.77
2022-10-31T04:14:42.978Z,90.77
2022-10-31T04:15:42.036Z,90.77
2022-10-31T04:16:41.200Z,90.77
2022-10-31T04:17:42.429Z,90.77
2022-10-31T04:18:41.566Z,90.77
2022-10-31T04:19:45.272Z,90.77
2022-10-31T04:20:41.957Z,90.77
2022-10-31T04:21:43.179Z,90.77
2022-10-31T04:22:41.291Z,90.77
2022-10-31T04:23:41.481Z,90.77
2022-10-31T04:24:41.682Z,90.77
2022-10-31T04:25:41.940Z,90.67
2022-10-31T04:26:42.049Z,90.57
2022-10-31T04:27:43.373Z,90.57
2022-10-31T04:28:41.359Z,90.47
2022-10-31T04:29:44.361Z,90.47
2022-10-31T04:30:42.809Z,90.47
2022-10-31T04:31:41.900Z,90.57
2022-10-31T04:32:41.053Z,90.67
2022-10-31T04:33:42.259Z,90.77
2022-10-31T04:34:41.404Z,90.77
2022-10-31T04:35:41.596Z,90.88
2022-10-31T04:36:41.989Z,90.92
2022-10-31T04:37:41.944Z,91.02
2022-10-31T04:38:41.154Z,91.22
2022-10-31T04:39:41.259Z,91.33
2022-10-31T04:40:41.440Z,91.33
2022-10-31T04:41:42.713Z,91.43
2022-10-31T04:42:42.350Z,91.43
2022-10-31T04:43:41.500Z,91.43
2022-10-31T04:44:42.721Z,91.43
2022-10-31T04:45:40.852Z,91.43
2022-10-31T04:46:43.122Z,91.63
2022-10-31T04:47:42.294Z,91.83
2022-10-31T04:48:41.424Z,91.83
2022-10-31T04:49:42.653Z,91.98
2022-10-31T04:50:42.856Z,92.08
2022-10-31T04:51:40.986Z,92.29
2022-10-31T04:52:43.300Z,92.49
2022-10-31T04:53:41.362Z,92.69
2022-10-31T04:54:42.615Z,92.80
2022-10-31T04:55:42.840Z,92.80
2022-10-31T04:56:41.903Z,92.90
2022-10-31T04:57:42.246Z,93.00
2022-10-31T04:58:42.938Z,93.25
2022-10-31T05:00:11.666Z,93.25
2022-10-31T05:00:40.845Z,93.25
2022-10-31T05:01:41.086Z,93.15
2022-10-31T05:02:44.522Z,93.05
2022-10-31T05:03:42.336Z,93.25
2022-10-31T05:04:41.625Z,93.35
2022-10-31T05:05:42.717Z,93.45
2022-10-31T05:06:42.923Z,93.45
2022-10-31T05:07:41.026Z,93.45
2022-10-31T05:08:42.261Z,93.55
2022-10-31T05:09:41.405Z,93.55
2022-10-31T05:10:40.617Z,93.66
2022-10-31T05:11:41.805Z,93.66
2022-10-31T05:12:40.976Z,93.76
2022-10-31T05:13:41.168Z,93.86
2022-10-31T05:14:43.464Z,93.76
2022-10-31T05:15:40.490Z,93.76
2022-10-31T05:16:40.790Z,93.91
2022-10-31T05:17:40.900Z,94.01
2022-10-31T05:18:42.087Z,94.11
2022-10-31T05:19:42.348Z,94.32
2022-10-31T05:20:40.455Z,94.42
2022-10-31T05:21:40.694Z,94.52
2022-10-31T05:22:40.906Z,94.62
2022-10-31T05:23:45.840Z,94.52
2022-10-31T05:24:41.255Z,94.62
2022-10-31T05:25:40.480Z,94.62
2022-10-31T05:26:40.710Z,94.62
2022-10-31T05:27:40.913Z,94.48
2022-10-31T05:28:41.137Z,94.37
2022-10-31T05:29:40.280Z,94.37
2022-10-31T05:30:40.499Z,94.37
2022-10-31T05:31:40.787Z,94.37
2022-10-31T05:32:40.940Z,94.27
2022-10-31T05:33:41.171Z,94.37
2022-10-31T05:34:40.258Z,94.37
2022-10-31T05:35:40.459Z,94.37
2022-10-31T05:36:40.657Z,94.37
2022-10-31T05:37:40.870Z,94.48
2022-10-31T05:38:41.077Z,94.62
2022-10-31T05:39:40.332Z,94.58
2022-10-31T05:40:40.452Z,94.62
2022-10-31T05:41:40.662Z,94.62
2022-10-31T05:42:40.889Z,94.73
2022-10-31T05:43:40.047Z,94.73
2022-10-31T05:44:40.250Z,94.73
2022-10-31T05:45:40.557Z,94.73
2022-10-31T05:46:40.661Z,94.73
2022-10-31T05:47:40.839Z,94.62
2022-10-31T05:48:40.011Z,94.62
2022-10-31T05:49:41.170Z,94.52
2022-10-31T05:50:40.446Z,94.52
2022-10-31T05:51:40.658Z,94.52
2022-10-31T05:52:40.790Z,94.52
2022-10-31T05:53:39.953Z,94.62
2022-10-31T05:54:40.130Z,94.82
2022-10-31T05:55:40.311Z,94.93
2022-10-31T05:56:40.529Z,94.93
2022-10-31T05:57:40.774Z,94.93
2022-10-31T05:58:39.871Z,95.03
2022-10-31T05:59:40.079Z,95.13
2022-10-31T06:00:40.263Z,95.23
2022-10-31T06:01:40.532Z,95.23
2022-10-31T06:02:40.649Z,95.23
2022-10-31T06:03:39.859Z,95.23
2022-10-31T06:04:40.069Z,95.13
2022-10-31T06:05:40.199Z,95.13
2022-10-31T06:06:40.719Z,95.28
2022-10-31T06:07:40.603Z,95.38
2022-10-31T06:08:40.203Z,95.38
2022-10-31T06:09:43.001Z,95.48
2022-10-31T06:10:40.231Z,95.48
2022-10-31T06:11:40.355Z,95.38
2022-10-31T06:12:40.554Z,95.28
2022-10-31T06:13:39.697Z,95.38
2022-10-31T06:14:39.900Z,95.48
2022-10-31T06:15:40.166Z,95.59
2022-10-31T06:16:40.286Z,95.59
2022-10-31T06:17:40.471Z,95.59
2022-10-31T06:18:39.604Z,95.59
2022-10-31T06:19:39.878Z,95.48
2022-10-31T06:20:40.030Z,95.48
2022-10-31T06:21:40.231Z,95.59
2022-10-31T06:22:42.479Z,95.69
2022-10-31T06:23:39.526Z,95.89
2022-10-31T06:24:40.664Z,96.10
2022-10-31T06:25:39.883Z,96.20
2022-10-31T06:26:40.469Z,96.41
2022-10-31T06:27:40.311Z,96.46
2022-10-31T06:28:40.434Z,96.56
2022-10-31T06:29:39.596Z,96.46
2022-10-31T06:30:39.793Z,96.36
2022-10-31T06:31:39.952Z,96.46
2022-10-31T06:32:40.134Z,96.46
2022-10-31T06:33:40.348Z,96.46
2022-10-31T06:34:39.466Z,96.46
2022-10-31T06:35:39.666Z,96.56
2022-10-31T06:36:39.851Z,96.56
2022-10-31T06:37:40.037Z,96.56
2022-10-31T06:38:40.264Z,96.46
2022-10-31T06:39:39.411Z,96.46
2022-10-31T06:40:39.564Z,96.46
2022-10-31T06:41:39.753Z,96.46
2022-10-31T06:42:39.925Z,96.36
2022-10-31T06:43:40.114Z,96.26
2022-10-31T06:44:39.352Z,96.15
2022-10-31T06:45:39.433Z,96.15
2022-10-31T06:46:40.634Z,96.05
2022-10-31T06:47:56.685Z,96.05
2022-10-31T06:48:40.931Z,96.05
2022-10-31T06:49:40.104Z,96.05
2022-10-31T06:50:39.258Z,96.26
2022-10-31T06:51:40.597Z,96.36
2022-10-31T06:52:39.592Z,96.46
2022-10-31T06:53:40.730Z,96.46
2022-10-31T06:54:39.967Z,96.46
2022-10-31T06:55:39.085Z,96.56
2022-10-31T06:56:40.625Z,96.56
2022-10-31T06:57:39.515Z,96.56
2022-10-31T06:58:39.669Z,96.56
2022-10-31T06:59:39.859Z,96.42
2022-10-31T07:00:40.103Z,96.31
2022-10-31T07:01:39.335Z,96.31
2022-10-31T07:02:40.465Z,96.21
2022-10-31T07:03:39.684Z,96.21
2022-10-31T07:04:39.764Z,96.21
2022-10-31T07:05:39.948Z,96.21
2022-10-31T07:06:39.128Z,96.31
2022-10-31T07:07:39.304Z,96.31
2022-10-31T07:08:39.531Z,96.31
2022-10-31T07:09:40.738Z,96.51
2022-10-31T07:10:40.736Z,96.51
2022-10-31T07:11:40.047Z,96.51
2022-10-31T07:12:40.208Z,96.51
2022-10-31T07:13:39.348Z,96.51
2022-10-31T07:14:40.038Z,96.42
2022-10-31T07:15:39.736Z,96.42
2022-10-31T07:16:38.881Z,96.42
2022-10-31T07:17:39.039Z,96.42
2022-10-31T07:18:39.241Z,96.21
2022-10-31T07:19:39.433Z,96.11
2022-10-31T07:20:39.668Z,96.01
2022-10-31T07:21:39.777Z,96.01
2022-10-31T07:22:38.938Z,96.01
2022-10-31T07:23:39.118Z,95.96
2022-10-31T07:24:39.281Z,95.86
2022-10-31T07:25:39.438Z,95.86
2022-10-31T07:26:39.650Z,95.76
2022-10-31T07:27:41.730Z,95.65
2022-10-31T07:28:38.963Z,95.65
2022-10-31T07:29:39.117Z,95.65
2022-10-31T07:30:40.376Z,95.76
2022-10-31T07:31:39.471Z,95.65
2022-10-31T07:32:38.651Z,95.76
2022-10-31T07:33:38.809Z,95.86
2022-10-31T07:34:42.342Z,95.96
2022-10-31T07:35:40.154Z,95.96
2022-10-31T07:36:39.341Z,95.96
2022-10-31T07:37:39.556Z,95.92
2022-10-31T07:38:38.710Z,95.92
2022-10-31T07:39:39.859Z,96.02
2022-10-31T07:40:40.044Z,95.92
2022-10-31T07:41:39.150Z,95.92
2022-10-31T07:42:39.344Z,95.81
2022-10-31T07:43:38.658Z,95.81
2022-10-31T07:44:39.707Z,95.81
2022-10-31T07:45:38.862Z,95.81
2022-10-31T07:46:39.030Z,95.61
2022-10-31T07:47:42.224Z,95.51
2022-10-31T07:48:40.448Z,95.36
2022-10-31T07:49:38.539Z,95.36
2022-10-31T07:50:39.774Z,95.26
2022-10-31T07:51:41.606Z,95.16
2022-10-31T07:52:40.079Z,95.06
2022-10-31T07:53:42.444Z,95.06
2022-10-31T07:54:39.439Z,95.06
2022-10-31T07:55:38.566Z,95.06
2022-10-31T07:56:38.740Z,95.06
2022-10-31T07:57:38.914Z,95.06
2022-10-31T07:58:39.119Z,95.26
2022-10-31T07:59:40.404Z,95.26
2022-10-31T08:00:39.574Z,95.47
2022-10-31T08:01:38.613Z,95.47
2022-10-31T08:02:38.782Z,95.36
2022-10-31T08:03:38.972Z,95.47
2022-10-31T08:04:39.154Z,95.36
2022-10-31T08:05:39.832Z,95.47
2022-10-31T08:06:38.511Z,95.47
2022-10-31T08:07:38.800Z,95.47
2022-10-31T08:08:39.939Z,95.26
2022-10-31T08:09:39.072Z,95.12
2022-10-31T08:10:38.229Z,94.81
2022-10-31T08:11:39.513Z,94.71
2022-10-31T08:12:38.616Z,94.71
2022-10-31T08:13:38.815Z,94.60
2022-10-31T08:14:38.995Z,94.50
2022-10-31T08:15:38.122Z,94.50
2022-10-31T08:16:38.273Z,94.40
2022-10-31T08:17:38.798Z,94.30
2022-10-31T08:18:38.634Z,94.40
2022-10-31T08:19:38.754Z,94.30
2022-10-31T08:20:38.938Z,94.30
2022-10-31T08:21:38.052Z,94.20
2022-10-31T08:22:41.290Z,93.99
2022-10-31T08:23:39.421Z,93.99
2022-10-31T08:25:39.239Z,93.85
2022-10-31T08:26:39.960Z,93.74
2022-10-31T08:27:38.058Z,93.74
2022-10-31T08:28:39.248Z,93.74
2022-10-31T08:29:38.423Z,93.64
2022-10-31T08:30:39.538Z,93.64
2022-10-31T08:31:41.845Z,93.54
2022-10-31T08:32:37.936Z,93.54
2022-10-31T08:33:38.135Z,93.44
2022-10-31T08:34:39.406Z,93.44
2022-10-31T08:35:39.547Z,93.29
2022-10-31T08:36:38.677Z,93.29
2022-10-31T08:37:37.824Z,92.89
2022-10-31T08:38:38.009Z,92.89
2022-10-31T08:39:45.472Z,92.99
2022-10-31T08:40:38.325Z,92.99
2022-10-31T08:41:38.527Z,92.99
2022-10-31T08:42:39.729Z,92.89
2022-10-31T08:43:39.904Z,92.68
2022-10-31T08:44:37.992Z,92.64
2022-10-31T08:45:41.407Z,92.64
2022-10-31T08:46:40.441Z,92.44
2022-10-31T08:47:39.588Z,92.03
2022-10-31T08:48:37.692Z,92.03
2022-10-31T08:49:37.906Z,92.13
2022-10-31T08:50:38.081Z,92.23
2022-10-31T08:51:38.283Z,92.23
2022-10-31T08:53:03.722Z,92.23
2022-10-31T08:53:41.686Z,92.33
2022-10-31T08:54:37.781Z,92.44
2022-10-31T08:55:39.030Z,92.54
2022-10-31T08:56:39.236Z,92.64
2022-10-31T08:57:38.328Z,92.64
2022-10-31T08:58:40.183Z,92.64
2022-10-31T08:59:37.686Z,92.60
2022-10-31T09:00:37.962Z,92.49
2022-10-31T09:01:38.162Z,92.40
2022-10-31T09:02:38.279Z,92.19
2022-10-31T09:03:38.419Z,92.29
2022-10-31T09:04:37.572Z,92.19
2022-10-31T09:05:37.783Z,91.78
2022-10-31T09:06:38.223Z,91.64
2022-10-31T09:07:38.108Z,91.64
2022-10-31T09:08:38.407Z,91.43
2022-10-31T09:09:37.437Z,91.23
2022-10-31T09:10:37.604Z,91.33
2022-10-31T09:11:37.760Z,91.33
2022-10-31T09:12:37.959Z,91.23
2022-10-31T09:13:41.373Z,91.19
2022-10-31T09:14:37.413Z,91.19
2022-10-31T09:15:38.549Z,90.88
2022-10-31T09:16:38.351Z,90.78
2022-10-31T09:17:37.852Z,90.88
2022-10-31T09:18:38.027Z,90.78
2022-10-31T09:19:38.183Z,90.88
2022-10-31T09:20:37.329Z,90.94
2022-10-31T09:21:37.482Z,90.64
2022-10-31T09:22:37.656Z,90.44
2022-10-31T09:23:37.820Z,90.53
2022-10-31T09:24:37.999Z,90.33
2022-10-31T09:25:37.142Z,89.83
2022-10-31T09:26:37.603Z,89.83
2022-10-31T09:27:37.507Z,89.68
2022-10-31T09:28:37.634Z,89.58
2022-10-31T09:29:37.826Z,89.58
2022-10-31T09:30:38.051Z,89.48
2022-10-31T09:31:42.219Z,89.17
2022-10-31T09:32:38.316Z,89.28
2022-10-31T09:33:37.477Z,89.13
2022-10-31T09:34:37.629Z,88.73
2022-10-31T09:35:37.815Z,88.42
2022-10-31T09:36:38.120Z,88.42
2022-10-31T09:37:37.120Z,88.52
2022-10-31T09:38:37.243Z,88.42
2022-10-31T09:39:37.400Z,88.32
2022-10-31T09:40:37.560Z,87.92
2022-10-31T09:41:37.711Z,87.67
2022-10-31T09:42:37.907Z,87.46
2022-10-31T09:43:36.985Z,87.57
2022-10-31T09:44:37.147Z,87.57
2022-10-31T09:45:37.319Z,87.77
2022-10-31T09:46:37.440Z,87.67
2022-10-31T09:47:37.602Z,87.37
2022-10-31T09:48:38.204Z,87.63
2022-10-31T09:49:36.920Z,87.43
2022-10-31T09:50:37.068Z,87.22
2022-10-31T09:51:37.177Z,87.22
2022-10-31T09:52:37.441Z,87.12
2022-10-31T09:53:38.547Z,87.18
2022-10-31T09:54:37.843Z,87.08
2022-10-31T09:55:37.760Z,86.77
2022-10-31T09:56:36.876Z,86.88
2022-10-31T09:57:37.034Z,86.77
2022-10-31T09:58:38.958Z,86.22
2022-10-31T09:59:37.347Z,85.93
2022-10-31T10:00:37.594Z,85.93
2022-10-31T10:01:37.830Z,85.52
2022-10-31T10:02:36.751Z,85.11
2022-10-31T10:03:36.930Z,85.72
2022-10-31T10:04:37.075Z,85.48
2022-10-31T10:05:37.219Z,84.87
2022-10-31T10:06:37.467Z,84.87
2022-10-31T10:07:37.562Z,85.07
2022-10-31T10:08:36.650Z,85.17
2022-10-31T10:09:36.806Z,84.93
2022-10-31T10:10:36.946Z,85.13
2022-10-31T10:11:37.112Z,85.24
2022-10-31T10:12:37.299Z,85.64
2022-10-31T10:13:37.407Z,85.13
2022-10-31T10:14:36.514Z,84.02
2022-10-31T10:15:36.658Z,83.98
2022-10-31T10:16:36.797Z,83.51
2022-10-31T10:17:36.968Z,83.31
2022-10-31T10:18:37.138Z,83.31
2022-10-31T10:19:37.270Z,83.88
2022-10-31T10:20:37.410Z,84.39
2022-10-31T10:21:36.498Z,84.28
2022-10-31T10:22:36.659Z,83.88
2022-10-31T10:23:36.764Z,83.47
2022-10-31T10:24:37.020Z,83.07
2022-10-31T10:25:37.084Z,82.97
2022-10-31T10:26:42.430Z,83.27
2022-10-31T10:27:36.319Z,83.13
2022-10-31T10:28:36.451Z,82.93
2022-10-31T10:29:36.597Z,83.54
2022-10-31T10:30:37.727Z,83.64
2022-10-31T10:31:36.890Z,83.64
2022-10-31T10:32:37.050Z,83.94
2022-10-31T10:33:37.223Z,83.50
2022-10-31T10:34:36.291Z,83.09
2022-10-31T10:35:36.438Z,82.79
2022-10-31T10:36:36.628Z,81.88
2022-10-31T10:37:36.746Z,82.59
2022-10-31T10:38:36.870Z,82.18
2022-10-31T10:39:37.047Z,81.57
2022-10-31T10:40:37.164Z,81.48
2022-10-31T10:41:37.305Z,81.07
2022-10-31T10:42:36.394Z,81.07
2022-10-31T10:43:36.594Z,80.46
2022-10-31T10:44:36.672Z,80.36
2022-10-31T10:45:36.806Z,80.32
2022-10-31T10:46:36.945Z,80.22
2022-10-31T10:47:36.051Z,80.12
2022-10-31T10:48:37.225Z,80.53
2022-10-31T10:49:36.291Z,80.53
2022-10-31T10:50:37.474Z,80.22
2022-10-31T10:52:43.507Z,80.32
2022-10-31T10:53:37.843Z,80.22
2022-10-31T10:54:36.963Z,80.32
2022-10-31T10:55:36.112Z,79.92
2022-10-31T10:56:36.211Z,80.32
2022-10-31T10:57:36.388Z,79.92
2022-10-31T10:58:37.505Z,80.12
2022-10-31T10:59:37.638Z,79.72
2022-10-31T11:00:37.809Z,79.41
2022-10-31T11:01:37.923Z,79.62
2022-10-31T11:02:36.975Z,79.21
2022-10-31T11:03:36.064Z,79.32
2022-10-31T11:04:36.198Z,79.62
2022-10-31T11:05:36.324Z,79.82
2022-10-31T11:06:36.458Z,79.41
2022-10-31T11:07:36.602Z,79.41
2022-10-31T11:08:36.758Z,79.41
2022-10-31T11:09:35.819Z,79.11
2022-10-31T11:10:37.008Z,79.32
2022-10-31T11:11:36.087Z,79.62
2022-10-31T11:12:36.229Z,79.62
2022-10-31T11:13:36.358Z,79.72
2022-10-31T11:14:37.661Z,79.58
2022-10-31T11:15:36.631Z,79.28
2022-10-31T11:16:40.791Z,79.58
2022-10-31T11:17:37.910Z,79.88
2022-10-31T11:18:37.060Z,79.88
2022-10-31T11:19:36.132Z,79.68
2022-10-31T11:20:36.313Z,79.28
2022-10-31T11:21:36.398Z,79.68
2022-10-31T11:22:36.515Z,79.28
2022-10-31T11:23:36.641Z,78.88
2022-10-31T11:24:37.817Z,78.97
2022-10-31T11:25:35.872Z,79.38
2022-10-31T11:26:37.265Z,79.68
2022-10-31T11:27:36.139Z,79.88
2022-10-31T11:28:36.331Z,80.08
2022-10-31T11:29:36.421Z,79.68
2022-10-31T11:30:37.574Z,79.85
2022-10-31T11:31:37.701Z,79.54
2022-10-31T11:32:35.709Z,79.85
2022-10-31T11:33:36.859Z,79.74
2022-10-31T11:34:35.929Z,79.64
2022-10-31T11:36:36.198Z,80.05
2022-10-31T11:37:36.346Z,78.94
2022-10-31T11:38:37.478Z,78.74
2022-10-31T11:39:37.620Z,79.10
2022-10-31T11:40:36.738Z,79.00
2022-10-31T11:41:35.811Z,79.10
2022-10-31T11:42:35.949Z,79.50
2022-10-31T11:43:37.206Z,78.80
2022-10-31T11:44:36.215Z,78.46
2022-10-31T11:45:35.298Z,78.36
2022-10-31T11:46:36.463Z,78.46
2022-10-31T11:47:36.576Z,78.06
2022-10-31T11:48:36.724Z,78.06
2022-10-31T11:49:36.879Z,78.06
2022-10-31T11:50:35.936Z,78.16
2022-10-31T11:51:36.085Z,77.62
2022-10-31T11:52:36.209Z,77.31
2022-10-31T11:53:35.296Z,76.51
2022-10-31T11:54:35.494Z,76.40
2022-10-31T11:55:36.621Z,76.71
2022-10-31T11:56:36.747Z,77.31
2022-10-31T11:57:35.862Z,77.72
2022-10-31T11:58:35.999Z,77.01
2022-10-31T11:59:36.108Z,77.62
2022-10-31T12:00:37.295Z,77.31
2022-10-31T12:01:42.438Z,76.40
2022-10-31T12:02:36.472Z,75.76
2022-10-31T12:03:36.563Z,75.56
2022-10-31T12:04:36.684Z,76.77
2022-10-31T12:05:35.743Z,76.87
2022-10-31T12:06:35.937Z,76.47
2022-10-31T12:07:35.986Z,76.57
2022-10-31T12:08:36.078Z,75.67
2022-10-31T12:09:35.135Z,75.67
2022-10-31T12:10:36.281Z,74.86
2022-10-31T12:11:36.435Z,75.96
2022-10-31T12:12:35.443Z,76.07
2022-10-31T12:13:36.584Z,75.76
2022-10-31T12:14:36.707Z,74.96
2022-10-31T12:15:35.787Z,75.06
2022-10-31T12:16:36.966Z,74.55
2022-10-31T12:17:35.017Z,75.56
2022-10-31T12:18:37.148Z,75.76
2022-10-31T12:19:37.249Z,75.56
2022-10-31T12:20:36.335Z,75.02
2022-10-31T12:21:35.418Z,76.03
2022-10-31T12:22:37.734Z,74.93
2022-10-31T12:23:36.652Z,75.33
2022-10-31T12:24:35.700Z,74.82
2022-10-31T12:25:36.836Z,74.73
2022-10-31T12:26:36.930Z,75.02
2022-10-31T12:27:37.052Z,75.43
2022-10-31T12:28:41.343Z,75.33
2022-10-31T12:29:36.213Z,75.83
2022-10-31T12:30:37.422Z,75.43
2022-10-31T12:31:35.460Z,75.02
2022-10-31T12:32:41.828Z,74.82
2022-10-31T12:33:35.788Z,75.09
2022-10-31T12:34:35.827Z,75.53
2022-10-31T12:35:35.957Z,75.59
2022-10-31T12:36:37.067Z,75.09
2022-10-31T12:37:38.080Z,74.49
2022-10-31T12:38:36.245Z,75.09
2022-10-31T12:39:36.393Z,74.89
2022-10-31T12:40:36.485Z,75.39
2022-10-31T12:41:36.538Z,75.49
2022-10-31T12:42:34.546Z,74.42
2022-10-31T12:43:35.663Z,74.73
2022-10-31T12:44:36.821Z,74.73
2022-10-31T12:45:34.865Z,75.33
2022-10-31T12:46:35.983Z,75.63
2022-10-31T12:47:35.063Z,74.82
2022-10-31T12:48:36.237Z,74.73
2022-10-31T12:49:35.242Z,75.33
2022-10-31T12:50:36.423Z,75.93
2022-10-31T12:51:35.526Z,76.34
2022-10-31T12:52:35.572Z,76.74
2022-10-31T12:53:35.670Z,76.64
2022-10-31T12:54:34.733Z,76.74
2022-10-31T12:55:34.835Z,76.14